»·PEaware :: N2291C KSMX-KBFL

N2291C :: KSMX-KBFL

FLIGHT INFORMATION

Flight Status: Arrived
Operator: Privately registered:
United States
More flights under this callsign
Pilot: Vincent G. (16149)
Aircraft: CESSNA 172 SKYHAWK
(C172)
More flights by this aircraft type
Origin: KSMX Santa Maria Pub/Capt Hancock
United States
Destination: KBFL Meadows
United States
More flights between these airports :: More routes between these airports
Route: +
File this flight plan on PilotEdge
Remarks:
Altitude:
(Current/Filed)
0ft
Speed:
(Current/Filed)
0kts
Departed: 08-Oct-17 09:56 AM
Arrived: 08-Oct-17 10:49 AM
Distance/Time
Traveled:
76nm/0:53
Distance/Time
To Go:
Arrived

Flight Plot

Page will automatically refresh every two minutes.


Map Options




Map Legend


Flown Route
Filed Route
Departure Airport
Arrival Airport
Navaid (VOR, NDB)
Fix

Horizontal Profiles

Position Reports

Time Latitude Longitude Heading Altitude Ground
Speed
08-Oct-17 09:55 34.896972 -120.447410 236 252ft 4kts
08-Oct-17 09:56 34.895713 -120.446841 136 254ft 6kts
08-Oct-17 09:57 34.894164 -120.445249 178 257ft 7kts
08-Oct-17 09:58 34.893648 -120.445254 178 258ft 0kts
08-Oct-17 09:59 34.893164 -120.446270 315 257ft 15kts
08-Oct-17 10:00 34.905558 -120.458591 5 1062ft 70kts
08-Oct-17 10:01 34.911368 -120.438414 84 2151ft 68kts
08-Oct-17 10:02 34.914643 -120.415215 73 3163ft 70kts
08-Oct-17 10:03 34.920302 -120.393999 65 4151ft 63kts
08-Oct-17 10:04 34.930231 -120.375006 58 5006ft 70kts
08-Oct-17 10:05 34.939955 -120.354651 66 5883ft 70kts
08-Oct-17 10:06 34.945761 -120.329651 78 6622ft 86kts
08-Oct-17 10:07 34.952752 -120.298517 73 6645ft 104kts
08-Oct-17 10:08 34.964777 -120.266922 69 6598ft 103kts
08-Oct-17 10:09 34.975804 -120.234957 67 6582ft 102kts
08-Oct-17 10:10 34.982673 -120.204092 76 6769ft 92kts
08-Oct-17 10:11 34.994215 -120.172620 68 6645ft 103kts
08-Oct-17 10:12 35.006029 -120.140154 68 6589ft 101kts
08-Oct-17 10:13 35.016778 -120.107922 65 6565ft 101kts
08-Oct-17 10:14 35.030012 -120.077851 54 6599ft 100kts
08-Oct-17 10:15 35.046790 -120.049980 53 6551ft 103kts
08-Oct-17 10:16 35.059167 -120.018274 70 6503ft 103kts
08-Oct-17 10:17 35.065729 -119.985849 71 6582ft 100kts
08-Oct-17 10:18 35.069267 -119.952816 84 6648ft 98kts
08-Oct-17 10:19 35.075596 -119.919890 68 6684ft 98kts
08-Oct-17 10:20 35.089395 -119.889809 57 6540ft 111kts
08-Oct-17 10:21 35.104823 -119.859420 58 6552ft 101kts
08-Oct-17 10:22 35.121668 -119.831497 54 6529ft 102kts
08-Oct-17 10:23 35.138206 -119.803477 55 6525ft 101kts
08-Oct-17 10:24 35.148308 -119.771527 68 6533ft 101kts
08-Oct-17 10:25 35.157689 -119.739615 76 6587ft 99kts
08-Oct-17 10:26 35.159171 -119.705649 80 6613ft 100kts
08-Oct-17 10:27 35.164943 -119.672329 76 6681ft 100kts
08-Oct-17 10:28 35.170806 -119.637880 83 6601ft 107kts
08-Oct-17 10:29 35.178115 -119.603309 61 6646ft 97kts
08-Oct-17 10:30 35.192691 -119.573925 57 6672ft 99kts
08-Oct-17 10:31 35.208441 -119.545269 53 6592ft 111kts
08-Oct-17 10:32 35.223098 -119.514868 58 6655ft 104kts
08-Oct-17 10:33 35.239923 -119.486476 48 6624ft 108kts
08-Oct-17 10:34 35.261206 -119.462457 37 6635ft 104kts
08-Oct-17 10:35 35.283373 -119.441252 45 6683ft 103kts
08-Oct-17 10:36 35.298582 -119.411633 71 6542ft 113kts
08-Oct-17 10:37 35.308554 -119.379692 66 6595ft 112kts
08-Oct-17 10:38 35.320568 -119.346621 66 6357ft 108kts
08-Oct-17 10:39 35.332430 -119.314174 67 5867ft 101kts
08-Oct-17 10:40 35.343711 -119.282821 66 5433ft 98kts
08-Oct-17 10:42 35.356718 -119.253392 65 5023ft 98kts
08-Oct-17 10:43 35.366897 -119.222048 68 4635ft 99kts
08-Oct-17 10:44 35.378618 -119.191731 61 4200ft 102kts
08-Oct-17 10:45 35.390957 -119.161169 63 3695ft 99kts
08-Oct-17 10:46 35.404570 -119.130326 61 2956ft 106kts
08-Oct-17 10:47 35.414502 -119.098559 98 2326ft 93kts
08-Oct-17 10:48 35.401960 -119.069708 125 1769ft 96kts
08-Oct-17 10:49 35.393503 -119.045473 104 1538ft 68kts
08-Oct-17 10:50 35.404166 -119.030021 351 1152ft 71kts
08-Oct-17 10:50 35.419093 -119.038629 319 809ft 71kts
08-Oct-17 10:52 35.426047 -119.046786 317 674ft 71kts
08-Oct-17 10:53 35.440340 -119.062690 358 495ft 0kts
08-Oct-17 10:54 35.440340 -119.062690 358 495ft 0kts
08-Oct-17 10:56 35.438789 -119.059929 135 494ft 24kts
08-Oct-17 10:56 35.437370 -119.056271 137 500ft 12kts
08-Oct-17 10:57 35.436622 -119.054733 352 504ft 0kts

Navigation Log

Ident Type
1. KSMX Airport
2. KBFL Airport